Strona główna
METAR-TAF:

METAR-TAF

Lotnisko :

Henderson City-County Airport

Henderson, Kentucky, Stany Zjednoczone

Szerokość geograficzna: 37-49N, Długość geograficzna: 087-41W, wysokość: 117 m

Aktualna obserwacja pogody

Raport powstał 22 minut temu, godzina 10:47 UTC
Cisza
Temperatura 10°C
Wilgotność 100%
Ciśnienie 1015 hPa
Widzialność: 1.2 km
Zachmurzenie całkowite na wysokości 1700 ft
zamglenie

METAR: KEHR 181047Z AUTO 00000KT 3/4SM BR OVC017 10/10 A2997 RMK AO2 RAB0959E33 P0001

czas: 05:09 (11:09 UTC)


TAF: brakujący

Obserwacja i prognoza pogody dla ponad 4000 lotnisk (raport METAR i TAF).

Dostępne stacje oznaczono żółtymi i czerwonymi punktami na mapie.

Najedź kursorem aby zobaczyć nazwę stacji.

Kliknij aby zobaczyć obserwacje i prognozy pogody.

Aby zmienić mapę: kliknij na zielony przycisk z czarnym krzyżykiem, aby powiększyć; na zielony przycisk z myślnikiem, aby pomniejszyć; na zielone strzałki, aby przejść do map sąsiednich.


METAR-TAF: